sensor_id;sensor_type;location;lat;lon;timestamp;P1;durP1;ratioP1;P2;durP2;ratioP2
21339;SDS011;10828;47.064;15.422;2023-08-17T04:24:58;18.83;;;10.47;;
21339;SDS011;10828;47.064;15.422;2023-08-17T04:27:24;22.23;;;10.87;;
21339;SDS011;10828;47.064;15.422;2023-08-17T04:29:51;18.53;;;11.10;;
21339;SDS011;10828;47.064;15.422;2023-08-17T04:32:19;17.33;;;11.13;;
21339;SDS011;10828;47.064;15.422;2023-08-17T04:34:45;20.60;;;10.97;;
21339;SDS011;10828;47.064;15.422;2023-08-17T04:37:13;19.73;;;11.17;;
21339;SDS011;10828;47.064;15.422;2023-08-17T04:39:39;19.77;;;12.23;;
21339;SDS011;10828;47.064;15.422;2023-08-17T04:42:06;19.10;;;11.93;;
21339;SDS011;10828;47.064;15.422;2023-08-17T04:44:33;18.87;;;11.97;;
21339;SDS011;10828;47.064;15.422;2023-08-17T04:46:59;22.40;;;12.63;;
21339;SDS011;10828;47.064;15.422;2023-08-17T04:49:26;22.30;;;12.20;;
21339;SDS011;10828;47.064;15.422;2023-08-17T04:51:52;22.80;;;11.90;;
21339;SDS011;10828;47.064;15.422;2023-08-17T04:54:18;21.13;;;12.57;;
21339;SDS011;10828;47.064;15.422;2023-08-17T04:56:52;22.70;;;13.00;;
21339;SDS011;10828;47.064;15.422;2023-08-17T04:59:17;20.30;;;12.77;;
21339;SDS011;10828;47.064;15.422;2023-08-17T05:01:43;20.10;;;12.00;;
21339;SDS011;10828;47.064;15.422;2023-08-17T05:04:08;18.73;;;11.70;;
21339;SDS011;10828;47.064;15.422;2023-08-17T05:06:34;31.03;;;14.30;;
21339;SDS011;10828;47.064;15.422;2023-08-17T05:09:00;22.23;;;13.10;;
21339;SDS011;10828;47.064;15.422;2023-08-17T05:11:42;22.10;;;12.67;;
21339;SDS011;10828;47.064;15.422;2023-08-17T05:14:09;17.50;;;11.50;;
21339;SDS011;10828;47.064;15.422;2023-08-17T05:16:34;19.37;;;12.83;;
21339;SDS011;10828;47.064;15.422;2023-08-17T05:19:00;24.00;;;13.20;;
21339;SDS011;10828;47.064;15.422;2023-08-17T05:21:26;23.50;;;11.97;;
21339;SDS011;10828;47.064;15.422;2023-08-17T05:23:52;23.13;;;12.70;;
21339;SDS011;10828;47.064;15.422;2023-08-17T05:26:17;20.07;;;12.20;;
21339;SDS011;10828;47.064;15.422;2023-08-17T05:28:43;25.70;;;12.77;;
21339;SDS011;10828;47.064;15.422;2023-08-17T05:31:15;25.37;;;12.10;;
21339;SDS011;10828;47.064;15.422;2023-08-17T05:33:40;22.57;;;12.43;;
21339;SDS011;10828;47.064;15.422;2023-08-17T05:36:06;21.30;;;12.40;;
21339;SDS011;10828;47.064;15.422;2023-08-17T05:38:32;26.70;;;13.10;;
21339;SDS011;10828;47.064;15.422;2023-08-17T05:40:58;20.93;;;12.17;;
21339;SDS011;10828;47.064;15.422;2023-08-17T05:43:31;21.77;;;12.27;;
21339;SDS011;10828;47.064;15.422;2023-08-17T05:45:56;25.20;;;12.67;;
21339;SDS011;10828;47.064;15.422;2023-08-17T05:48:24;21.93;;;12.80;;
21339;SDS011;10828;47.064;15.422;2023-08-17T05:50:50;23.97;;;13.63;;
21339;SDS011;10828;47.064;15.422;2023-08-17T05:53:15;19.57;;;12.67;;
21339;SDS011;10828;47.064;15.422;2023-08-17T05:55:41;24.53;;;12.10;;
21339;SDS011;10828;47.064;15.422;2023-08-17T05:58:06;21.30;;;13.43;;
21339;SDS011;10828;47.064;15.422;2023-08-17T06:00:46;20.73;;;11.80;;
21339;SDS011;10828;47.064;15.422;2023-08-17T06:03:12;24.53;;;12.43;;
21339;SDS011;10828;47.064;15.422;2023-08-17T06:05:38;18.70;;;11.80;;
21339;SDS011;10828;47.064;15.422;2023-08-17T06:08:05;24.40;;;12.93;;
21339;SDS011;10828;47.064;15.422;2023-08-17T06:10:30;22.20;;;11.63;;
21339;SDS011;10828;47.064;15.422;2023-08-17T06:12:56;23.00;;;12.70;;
21339;SDS011;10828;47.064;15.422;2023-08-17T06:15:22;24.63;;;13.40;;
21339;SDS011;10828;47.064;15.422;2023-08-17T06:17:48;23.00;;;12.20;;
21339;SDS011;10828;47.064;15.422;2023-08-17T06:20:18;22.43;;;11.80;;
21339;SDS011;10828;47.064;15.422;2023-08-17T06:22:44;24.00;;;11.57;;
21339;SDS011;10828;47.064;15.422;2023-08-17T06:25:10;20.73;;;12.00;;
21339;SDS011;10828;47.064;15.422;2023-08-17T06:27:35;18.33;;;10.70;;
21339;SDS011;10828;47.064;15.422;2023-08-17T06:30:04;16.80;;;9.97;;
21339;SDS011;10828;47.064;15.422;2023-08-17T06:32:31;23.27;;;11.43;;
21339;SDS011;10828;47.064;15.422;2023-08-17T06:34:57;21.77;;;11.17;;
21339;SDS011;10828;47.064;15.422;2023-08-17T06:37:24;19.97;;;11.50;;
21339;SDS011;10828;47.064;15.422;2023-08-17T06:39:59;17.43;;;10.67;;
21339;SDS011;10828;47.064;15.422;2023-08-17T06:42:24;17.40;;;10.70;;
21339;SDS011;10828;47.064;15.422;2023-08-17T06:44:50;17.30;;;10.23;;
21339;SDS011;10828;47.064;15.422;2023-08-17T06:47:15;22.23;;;11.07;;
21339;SDS011;10828;47.064;15.422;2023-08-17T06:49:41;18.87;;;10.83;;
21339;SDS011;10828;47.064;15.422;2023-08-17T06:52:07;23.43;;;10.60;;
21339;SDS011;10828;47.064;15.422;2023-08-17T06:54:32;18.33;;;10.13;;
21339;SDS011;10828;47.064;15.422;2023-08-17T06:56:58;18.87;;;9.73;;
21339;SDS011;10828;47.064;15.422;2023-08-17T06:59:48;22.23;;;10.73;;
21339;SDS011;10828;47.064;15.422;2023-08-17T07:02:13;20.33;;;10.13;;
21339;SDS011;10828;47.064;15.422;2023-08-17T07:04:39;17.60;;;10.20;;
21339;SDS011;10828;47.064;15.422;2023-08-17T07:07:04;18.63;;;10.13;;
21339;SDS011;10828;47.064;15.422;2023-08-17T07:09:30;16.27;;;9.03;;
21339;SDS011;10828;47.064;15.422;2023-08-17T07:11:55;21.93;;;10.70;;
21339;SDS011;10828;47.064;15.422;2023-08-17T07:14:21;21.00;;;9.47;;
21339;SDS011;10828;47.064;15.422;2023-08-17T07:16:47;15.43;;;9.57;;
21339;SDS011;10828;47.064;15.422;2023-08-17T07:19:12;17.77;;;9.70;;
21339;SDS011;10828;47.064;15.422;2023-08-17T07:21:38;14.17;;;8.87;;
21339;SDS011;10828;47.064;15.422;2023-08-17T07:24:14;13.83;;;8.57;;
21339;SDS011;10828;47.064;15.422;2023-08-17T07:26:40;18.33;;;11.47;;
21339;SDS011;10828;47.064;15.422;2023-08-17T07:29:06;14.77;;;9.77;;
21339;SDS011;10828;47.064;15.422;2023-08-17T07:31:31;15.47;;;9.23;;
21339;SDS011;10828;47.064;15.422;2023-08-17T07:33:58;14.00;;;8.50;;
21339;SDS011;10828;47.064;15.422;2023-08-17T07:36:24;11.00;;;7.57;;
21339;SDS011;10828;47.064;15.422;2023-08-17T07:38:51;15.17;;;9.40;;
21339;SDS011;10828;47.064;15.422;2023-08-17T07:41:17;17.43;;;9.30;;
21339;SDS011;10828;47.064;15.422;2023-08-17T07:43:49;18.57;;;8.53;;
21339;SDS011;10828;47.064;15.422;2023-08-17T07:46:14;16.60;;;8.07;;
21339;SDS011;10828;47.064;15.422;2023-08-17T07:48:40;13.87;;;8.20;;
21339;SDS011;10828;47.064;15.422;2023-08-17T07:51:06;15.07;;;7.47;;
21339;SDS011;10828;47.064;15.422;2023-08-17T07:53:31;12.17;;;6.97;;
21339;SDS011;10828;47.064;15.422;2023-08-17T07:55:57;14.13;;;7.27;;
21339;SDS011;10828;47.064;15.422;2023-08-17T07:58:23;12.93;;;6.97;;
21339;SDS011;10828;47.064;15.422;2023-08-17T08:00:48;14.87;;;6.93;;
21339;SDS011;10828;47.064;15.422;2023-08-17T08:03:14;11.87;;;7.10;;
21339;SDS011;10828;47.064;15.422;2023-08-17T08:05:40;13.93;;;8.97;;
21339;SDS011;10828;47.064;15.422;2023-08-17T08:08:05;11.90;;;6.97;;
21339;SDS011;10828;47.064;15.422;2023-08-17T08:10:32;11.27;;;7.07;;
21339;SDS011;10828;47.064;15.422;2023-08-17T08:12:58;11.13;;;7.17;;
21339;SDS011;10828;47.064;15.422;2023-08-17T08:15:29;14.53;;;6.67;;
21339;SDS011;10828;47.064;15.422;2023-08-17T08:17:56;11.13;;;6.40;;
21339;SDS011;10828;47.064;15.422;2023-08-17T08:20:22;10.40;;;6.80;;
21339;SDS011;10828;47.064;15.422;2023-08-17T08:22:48;10.23;;;6.53;;
21339;SDS011;10828;47.064;15.422;2023-08-17T08:25:13;10.67;;;7.03;;
21339;SDS011;10828;47.064;15.422;2023-08-17T08:27:39;11.43;;;6.60;;
21339;SDS011;10828;47.064;15.422;2023-08-17T08:30:05;13.27;;;6.60;;
21339;SDS011;10828;47.064;15.422;2023-08-17T08:32:34;10.73;;;7.00;;
21339;SDS011;10828;47.064;15.422;2023-08-17T09:22:45;12.77;;;6.47;;
21339;SDS011;10828;47.064;15.422;2023-08-17T09:25:10;10.52;;;6.57;;
21339;SDS011;10828;47.064;15.422;2023-08-17T09:27:46;11.80;;;6.45;;
21339;SDS011;10828;47.064;15.422;2023-08-17T09:30:18;8.50;;;5.88;;
21339;SDS011;10828;47.064;15.422;2023-08-17T09:32:44;9.18;;;5.95;;
21339;SDS011;10828;47.064;15.422;2023-08-17T09:35:13;8.88;;;5.53;;
21339;SDS011;10828;47.064;15.422;2023-08-17T09:37:38;13.05;;;6.70;;
21339;SDS011;10828;47.064;15.422;2023-08-17T09:40:04;8.68;;;5.70;;
21339;SDS011;10828;47.064;15.422;2023-08-17T09:42:31;8.00;;;5.45;;
21339;SDS011;10828;47.064;15.422;2023-08-17T09:44:59;10.32;;;5.25;;
21339;SDS011;10828;47.064;15.422;2023-08-17T09:47:26;12.60;;;5.50;;
21339;SDS011;10828;47.064;15.422;2023-08-17T09:49:52;9.73;;;5.72;;
21339;SDS011;10828;47.064;15.422;2023-08-17T09:52:19;10.95;;;5.93;;
21339;SDS011;10828;47.064;15.422;2023-08-17T09:54:45;9.77;;;5.22;;
21339;SDS011;10828;47.064;15.422;2023-08-17T09:57:15;9.65;;;5.38;;
21339;SDS011;10828;47.064;15.422;2023-08-17T09:59:41;10.55;;;6.13;;
21339;SDS011;10828;47.064;15.422;2023-08-17T10:02:17;9.40;;;5.45;;
21339;SDS011;10828;47.064;15.422;2023-08-17T10:04:45;11.00;;;6.20;;
21339;SDS011;10828;47.064;15.422;2023-08-17T10:07:16;10.05;;;6.00;;
21339;SDS011;10828;47.064;15.422;2023-08-17T10:09:45;11.73;;;6.13;;
21339;SDS011;10828;47.064;15.422;2023-08-17T10:12:17;7.88;;;5.30;;
21339;SDS011;10828;47.064;15.422;2023-08-17T10:14:48;10.73;;;6.00;;
21339;SDS011;10828;47.064;15.422;2023-08-17T10:17:28;10.73;;;5.63;;
21339;SDS011;10828;47.064;15.422;2023-08-17T10:19:59;10.23;;;5.75;;
21339;SDS011;10828;47.064;15.422;2023-08-17T10:25:09;8.68;;;6.00;;
21339;SDS011;10828;47.064;15.422;2023-08-17T10:27:38;9.40;;;6.32;;
21339;SDS011;10828;47.064;15.422;2023-08-17T10:30:06;10.35;;;6.00;;
21339;SDS011;10828;47.064;15.422;2023-08-17T10:32:34;9.43;;;5.80;;
21339;SDS011;10828;47.064;15.422;2023-08-17T10:35:00;9.10;;;5.53;;
21339;SDS011;10828;47.064;15.422;2023-08-17T10:37:27;11.40;;;5.78;;
21339;SDS011;10828;47.064;15.422;2023-08-17T10:39:54;10.27;;;6.05;;
21339;SDS011;10828;47.064;15.422;2023-08-17T10:42:32;8.98;;;5.80;;
21339;SDS011;10828;47.064;15.422;2023-08-17T10:45:01;8.65;;;5.60;;
21339;SDS011;10828;47.064;15.422;2023-08-17T10:47:46;9.13;;;6.03;;
21339;SDS011;10828;47.064;15.422;2023-08-17T10:50:23;8.73;;;5.88;;
21339;SDS011;10828;47.064;15.422;2023-08-17T10:52:49;8.02;;;5.75;;
21339;SDS011;10828;47.064;15.422;2023-08-17T10:55:16;8.90;;;5.90;;
21339;SDS011;10828;47.064;15.422;2023-08-17T10:57:43;14.23;;;5.90;;
21339;SDS011;10828;47.064;15.422;2023-08-17T11:00:19;8.15;;;5.50;;
21339;SDS011;10828;47.064;15.422;2023-08-17T11:02:53;10.82;;;5.88;;
21339;SDS011;10828;47.064;15.422;2023-08-17T11:05:34;11.82;;;5.85;;
21339;SDS011;10828;47.064;15.422;2023-08-17T11:08:11;12.60;;;6.07;;
21339;SDS011;10828;47.064;15.422;2023-08-17T11:11:04;9.43;;;5.60;;
21339;SDS011;10828;47.064;15.422;2023-08-17T11:13:37;9.63;;;5.78;;
21339;SDS011;10828;47.064;15.422;2023-08-17T11:16:10;7.78;;;5.55;;
21339;SDS011;10828;47.064;15.422;2023-08-17T11:18:37;10.88;;;5.82;;
21339;SDS011;10828;47.064;15.422;2023-08-17T11:21:03;9.68;;;5.57;;
21339;SDS011;10828;47.064;15.422;2023-08-17T11:23:30;9.15;;;5.75;;
21339;SDS011;10828;47.064;15.422;2023-08-17T11:25:57;11.80;;;5.45;;
21339;SDS011;10828;47.064;15.422;2023-08-17T11:28:24;12.43;;;5.60;;
21339;SDS011;10828;47.064;15.422;2023-08-17T11:31:00;8.48;;;5.63;;
21339;SDS011;10828;47.064;15.422;2023-08-17T11:33:26;10.50;;;5.72;;
21339;SDS011;10828;47.064;15.422;2023-08-17T11:35:59;9.13;;;5.80;;
21339;SDS011;10828;47.064;15.422;2023-08-17T11:38:29;12.23;;;6.28;;
21339;SDS011;10828;47.064;15.422;2023-08-17T11:40:57;10.60;;;6.78;;
21339;SDS011;10828;47.064;15.422;2023-08-17T11:43:23;10.35;;;5.82;;
21339;SDS011;10828;47.064;15.422;2023-08-17T11:45:49;9.32;;;5.65;;
21339;SDS011;10828;47.064;15.422;2023-08-17T11:48:16;9.32;;;6.10;;
21339;SDS011;10828;47.064;15.422;2023-08-17T11:50:44;8.50;;;5.85;;
21339;SDS011;10828;47.064;15.422;2023-08-17T11:53:10;13.45;;;5.78;;
21339;SDS011;10828;47.064;15.422;2023-08-17T11:55:36;12.82;;;5.72;;
21339;SDS011;10828;47.064;15.422;2023-08-17T11:58:02;9.60;;;5.75;;
21339;SDS011;10828;47.064;15.422;2023-08-17T13:20:44;7.95;;;4.53;;
21339;SDS011;10828;47.064;15.422;2023-08-17T13:23:10;9.48;;;4.95;;
21339;SDS011;10828;47.064;15.422;2023-08-17T13:25:37;10.00;;;4.97;;
21339;SDS011;10828;47.064;15.422;2023-08-17T13:28:03;10.57;;;4.72;;
21339;SDS011;10828;47.064;15.422;2023-08-17T13:30:29;6.65;;;4.70;;
21339;SDS011;10828;47.064;15.422;2023-08-17T13:32:55;7.68;;;4.55;;
21339;SDS011;10828;47.064;15.422;2023-08-17T13:35:21;6.85;;;4.72;;
21339;SDS011;10828;47.064;15.422;2023-08-17T13:37:50;8.25;;;4.22;;
21339;SDS011;10828;47.064;15.422;2023-08-17T13:40:19;7.65;;;4.57;;
21339;SDS011;10828;47.064;15.422;2023-08-17T13:42:45;7.35;;;4.60;;
21339;SDS011;10828;47.064;15.422;2023-08-17T13:45:11;7.60;;;4.20;;
21339;SDS011;10828;47.064;15.422;2023-08-17T13:47:37;6.45;;;4.00;;
21339;SDS011;10828;47.064;15.422;2023-08-17T13:50:04;8.93;;;4.28;;
21339;SDS011;10828;47.064;15.422;2023-08-17T13:52:29;9.98;;;4.63;;
21339;SDS011;10828;47.064;15.422;2023-08-17T13:54:55;8.02;;;4.20;;
21339;SDS011;10828;47.064;15.422;2023-08-17T13:57:21;8.55;;;4.55;;
21339;SDS011;10828;47.064;15.422;2023-08-17T13:59:46;8.02;;;4.30;;
21339;SDS011;10828;47.064;15.422;2023-08-17T14:02:12;8.07;;;4.43;;
21339;SDS011;10828;47.064;15.422;2023-08-17T14:04:37;10.98;;;4.43;;
21339;SDS011;10828;47.064;15.422;2023-08-17T14:07:03;10.20;;;4.15;;
21339;SDS011;10828;47.064;15.422;2023-08-17T14:09:29;6.22;;;4.38;;
21339;SDS011;10828;47.064;15.422;2023-08-17T14:11:56;11.50;;;4.45;;
21339;SDS011;10828;47.064;15.422;2023-08-17T14:14:21;13.25;;;4.53;;
21339;SDS011;10828;47.064;15.422;2023-08-17T14:16:47;8.55;;;4.60;;
21339;SDS011;10828;47.064;15.422;2023-08-17T14:19:13;7.28;;;3.90;;
21339;SDS011;10828;47.064;15.422;2023-08-17T14:21:38;7.25;;;3.72;;
21339;SDS011;10828;47.064;15.422;2023-08-17T14:24:04;8.25;;;4.47;;
21339;SDS011;10828;47.064;15.422;2023-08-17T14:26:31;11.55;;;5.18;;
21339;SDS011;10828;47.064;15.422;2023-08-17T14:28:57;6.65;;;4.13;;
21339;SDS011;10828;47.064;15.422;2023-08-17T14:31:22;7.82;;;4.00;;
21339;SDS011;10828;47.064;15.422;2023-08-17T14:33:48;6.40;;;3.90;;
21339;SDS011;10828;47.064;15.422;2023-08-17T14:36:14;8.48;;;4.70;;
21339;SDS011;10828;47.064;15.422;2023-08-17T14:38:40;10.13;;;4.40;;
21339;SDS011;10828;47.064;15.422;2023-08-17T14:41:06;6.15;;;3.78;;
21339;SDS011;10828;47.064;15.422;2023-08-17T14:43:33;8.07;;;4.20;;
21339;SDS011;10828;47.064;15.422;2023-08-17T14:45:59;6.75;;;4.28;;
21339;SDS011;10828;47.064;15.422;2023-08-17T14:48:24;5.85;;;3.65;;
21339;SDS011;10828;47.064;15.422;2023-08-17T14:50:50;7.25;;;3.90;;
21339;SDS011;10828;47.064;15.422;2023-08-17T14:53:16;10.98;;;4.03;;
21339;SDS011;10828;47.064;15.422;2023-08-17T14:55:42;12.55;;;4.47;;
21339;SDS011;10828;47.064;15.422;2023-08-17T14:58:07;8.38;;;5.90;;
21339;SDS011;10828;47.064;15.422;2023-08-17T15:00:33;9.43;;;4.40;;
21339;SDS011;10828;47.064;15.422;2023-08-17T15:02:59;8.65;;;4.15;;
21339;SDS011;10828;47.064;15.422;2023-08-17T15:05:24;7.07;;;4.05;;
21339;SDS011;10828;47.064;15.422;2023-08-17T15:07:50;6.97;;;3.92;;
21339;SDS011;10828;47.064;15.422;2023-08-17T15:10:16;6.90;;;3.90;;
21339;SDS011;10828;47.064;15.422;2023-08-17T15:12:43;8.02;;;4.05;;
21339;SDS011;10828;47.064;15.422;2023-08-17T15:15:09;8.90;;;4.45;;
21339;SDS011;10828;47.064;15.422;2023-08-17T15:17:35;8.52;;;4.65;;
21339;SDS011;10828;47.064;15.422;2023-08-17T15:20:03;11.57;;;4.55;;
21339;SDS011;10828;47.064;15.422;2023-08-17T15:22:29;7.25;;;4.78;;
21339;SDS011;10828;47.064;15.422;2023-08-17T15:24:56;8.40;;;4.97;;
21339;SDS011;10828;47.064;15.422;2023-08-17T15:27:21;9.40;;;4.70;;
21339;SDS011;10828;47.064;15.422;2023-08-17T15:29:47;7.55;;;4.50;;
21339;SDS011;10828;47.064;15.422;2023-08-17T15:32:13;10.95;;;5.00;;
21339;SDS011;10828;47.064;15.422;2023-08-17T15:34:38;8.23;;;4.82;;
21339;SDS011;10828;47.064;15.422;2023-08-17T15:37:05;7.97;;;4.68;;
21339;SDS011;10828;47.064;15.422;2023-08-17T15:39:31;8.93;;;4.53;;
21339;SDS011;10828;47.064;15.422;2023-08-17T15:41:57;13.80;;;4.43;;
21339;SDS011;10828;47.064;15.422;2023-08-17T15:44:23;10.30;;;4.60;;
21339;SDS011;10828;47.064;15.422;2023-08-17T15:46:52;8.25;;;4.78;;
21339;SDS011;10828;47.064;15.422;2023-08-17T15:49:18;7.65;;;4.20;;
21339;SDS011;10828;47.064;15.422;2023-08-17T15:51:43;6.55;;;4.38;;
21339;SDS011;10828;47.064;15.422;2023-08-17T15:54:09;8.18;;;4.40;;
21339;SDS011;10828;47.064;15.422;2023-08-17T15:56:37;8.10;;;4.78;;
21339;SDS011;10828;47.064;15.422;2023-08-17T15:59:03;13.38;;;4.85;;
21339;SDS011;10828;47.064;15.422;2023-08-17T16:01:29;8.20;;;4.30;;
21339;SDS011;10828;47.064;15.422;2023-08-17T16:03:55;8.00;;;4.32;;
21339;SDS011;10828;47.064;15.422;2023-08-17T16:06:21;8.55;;;4.65;;
21339;SDS011;10828;47.064;15.422;2023-08-17T16:08:47;10.02;;;4.43;;
21339;SDS011;10828;47.064;15.422;2023-08-17T16:11:12;7.63;;;4.35;;
21339;SDS011;10828;47.064;15.422;2023-08-17T16:13:38;7.15;;;4.65;;
21339;SDS011;10828;47.064;15.422;2023-08-17T16:16:04;10.75;;;4.78;;
21339;SDS011;10828;47.064;15.422;2023-08-17T16:18:30;8.02;;;4.63;;
21339;SDS011;10828;47.064;15.422;2023-08-17T16:20:56;9.75;;;4.72;;
21339;SDS011;10828;47.064;15.422;2023-08-17T16:23:22;8.15;;;4.63;;
21339;SDS011;10828;47.064;15.422;2023-08-17T16:25:48;9.35;;;4.75;;
21339;SDS011;10828;47.064;15.422;2023-08-17T16:28:13;6.55;;;4.68;;
21339;SDS011;10828;47.064;15.422;2023-08-17T16:30:39;11.95;;;4.40;;
21339;SDS011;10828;47.064;15.422;2023-08-17T16:33:07;10.98;;;5.00;;
21339;SDS011;10828;47.064;15.422;2023-08-17T16:35:33;7.90;;;4.82;;
21339;SDS011;10828;47.064;15.422;2023-08-17T16:38:02;9.13;;;5.13;;
21339;SDS011;10828;47.064;15.422;2023-08-17T16:40:28;9.48;;;5.00;;
21339;SDS011;10828;47.064;15.422;2023-08-17T16:42:54;9.50;;;4.82;;
21339;SDS011;10828;47.064;15.422;2023-08-17T16:45:20;8.20;;;4.97;;
21339;SDS011;10828;47.064;15.422;2023-08-17T16:47:47;9.70;;;5.15;;
21339;SDS011;10828;47.064;15.422;2023-08-17T16:50:13;12.93;;;4.97;;
21339;SDS011;10828;47.064;15.422;2023-08-17T16:52:39;10.25;;;4.70;;
21339;SDS011;10828;47.064;15.422;2023-08-17T16:55:05;9.02;;;4.95;;
21339;SDS011;10828;47.064;15.422;2023-08-17T16:57:32;9.45;;;4.95;;
21339;SDS011;10828;47.064;15.422;2023-08-17T16:59:58;7.63;;;4.70;;
21339;SDS011;10828;47.064;15.422;2023-08-17T17:02:25;10.40;;;5.50;;
21339;SDS011;10828;47.064;15.422;2023-08-17T17:04:51;12.43;;;5.40;;
21339;SDS011;10828;47.064;15.422;2023-08-17T17:07:17;8.57;;;5.20;;
21339;SDS011;10828;47.064;15.422;2023-08-17T17:09:45;11.50;;;5.18;;
21339;SDS011;10828;47.064;15.422;2023-08-17T17:12:11;8.48;;;4.85;;
21339;SDS011;10828;47.064;15.422;2023-08-17T17:14:38;10.35;;;5.28;;
21339;SDS011;10828;47.064;15.422;2023-08-17T17:17:04;9.85;;;5.43;;
21339;SDS011;10828;47.064;15.422;2023-08-17T17:19:31;8.20;;;5.43;;
21339;SDS011;10828;47.064;15.422;2023-08-17T17:21:57;9.60;;;5.20;;
21339;SDS011;10828;47.064;15.422;2023-08-17T17:24:24;10.57;;;5.13;;
21339;SDS011;10828;47.064;15.422;2023-08-17T17:26:50;9.73;;;4.97;;
21339;SDS011;10828;47.064;15.422;2023-08-17T17:29:17;11.13;;;5.63;;
21339;SDS011;10828;47.064;15.422;2023-08-17T17:31:43;12.68;;;5.60;;
21339;SDS011;10828;47.064;15.422;2023-08-17T17:34:09;15.02;;;5.53;;
21339;SDS011;10828;47.064;15.422;2023-08-17T17:36:35;15.85;;;6.00;;
21339;SDS011;10828;47.064;15.422;2023-08-17T17:39:02;9.80;;;5.75;;
21339;SDS011;10828;47.064;15.422;2023-08-17T17:41:28;11.65;;;5.88;;
21339;SDS011;10828;47.064;15.422;2023-08-17T17:43:56;11.75;;;6.78;;
21339;SDS011;10828;47.064;15.422;2023-08-17T17:46:22;9.27;;;5.97;;
21339;SDS011;10828;47.064;15.422;2023-08-17T17:48:49;11.25;;;5.50;;
21339;SDS011;10828;47.064;15.422;2023-08-17T17:51:15;10.60;;;5.97;;
21339;SDS011;10828;47.064;15.422;2023-08-17T17:53:42;10.88;;;5.40;;
21339;SDS011;10828;47.064;15.422;2023-08-17T17:56:10;14.10;;;5.65;;
21339;SDS011;10828;47.064;15.422;2023-08-17T17:58:39;9.30;;;5.72;;
21339;SDS011;10828;47.064;15.422;2023-08-17T18:01:13;10.60;;;5.68;;
21339;SDS011;10828;47.064;15.422;2023-08-17T18:03:39;10.23;;;5.47;;
21339;SDS011;10828;47.064;15.422;2023-08-17T18:06:06;12.25;;;5.65;;
21339;SDS011;10828;47.064;15.422;2023-08-17T18:08:32;14.10;;;7.32;;
21339;SDS011;10828;47.064;15.422;2023-08-17T18:10:59;9.57;;;6.10;;
21339;SDS011;10828;47.064;15.422;2023-08-17T18:13:25;9.90;;;5.63;;
21339;SDS011;10828;47.064;15.422;2023-08-17T18:15:52;11.98;;;6.13;;
21339;SDS011;10828;47.064;15.422;2023-08-17T18:18:19;12.18;;;6.05;;
21339;SDS011;10828;47.064;15.422;2023-08-17T18:20:45;10.30;;;6.00;;
21339;SDS011;10828;47.064;15.422;2023-08-17T18:23:13;8.80;;;5.88;;
21339;SDS011;10828;47.064;15.422;2023-08-17T18:25:41;13.43;;;6.53;;
21339;SDS011;10828;47.064;15.422;2023-08-17T18:28:11;10.43;;;5.65;;
21339;SDS011;10828;47.064;15.422;2023-08-17T18:30:38;8.25;;;5.40;;
21339;SDS011;10828;47.064;15.422;2023-08-17T18:33:04;13.13;;;5.70;;
21339;SDS011;10828;47.064;15.422;2023-08-17T18:35:30;12.18;;;5.80;;
21339;SDS011;10828;47.064;15.422;2023-08-17T18:37:59;14.60;;;6.18;;
21339;SDS011;10828;47.064;15.422;2023-08-17T18:40:25;11.82;;;6.30;;
21339;SDS011;10828;47.064;15.422;2023-08-17T18:42:52;14.85;;;6.55;;
21339;SDS011;10828;47.064;15.422;2023-08-17T18:45:18;9.60;;;5.55;;
21339;SDS011;10828;47.064;15.422;2023-08-17T18:47:45;11.65;;;6.07;;
21339;SDS011;10828;47.064;15.422;2023-08-17T18:50:12;8.93;;;6.00;;
21339;SDS011;10828;47.064;15.422;2023-08-17T18:52:40;11.73;;;7.00;;
21339;SDS011;10828;47.064;15.422;2023-08-17T18:55:07;13.05;;;6.80;;
21339;SDS011;10828;47.064;15.422;2023-08-17T18:57:36;17.30;;;7.07;;
21339;SDS011;10828;47.064;15.422;2023-08-17T19:00:07;11.75;;;6.78;;
21339;SDS011;10828;47.064;15.422;2023-08-17T19:02:40;17.80;;;6.72;;
21339;SDS011;10828;47.064;15.422;2023-08-17T19:05:08;12.45;;;6.88;;
21339;SDS011;10828;47.064;15.422;2023-08-17T19:07:35;9.63;;;5.95;;
21339;SDS011;10828;47.064;15.422;2023-08-17T19:10:01;11.40;;;6.53;;
21339;SDS011;10828;47.064;15.422;2023-08-17T19:12:28;14.30;;;7.50;;
21339;SDS011;10828;47.064;15.422;2023-08-17T19:14:54;12.90;;;6.93;;
21339;SDS011;10828;47.064;15.422;2023-08-17T19:17:21;9.40;;;6.43;;
21339;SDS011;10828;47.064;15.422;2023-08-17T19:19:47;9.98;;;6.95;;
21339;SDS011;10828;47.064;15.422;2023-08-17T19:22:15;10.90;;;6.87;;
21339;SDS011;10828;47.064;15.422;2023-08-17T19:24:44;13.30;;;7.17;;
21339;SDS011;10828;47.064;15.422;2023-08-17T19:27:10;15.40;;;7.17;;
21339;SDS011;10828;47.064;15.422;2023-08-17T19:29:37;10.97;;;7.37;;
21339;SDS011;10828;47.064;15.422;2023-08-17T19:32:05;11.38;;;7.50;;
21339;SDS011;10828;47.064;15.422;2023-08-17T19:34:32;14.20;;;7.40;;
21339;SDS011;10828;47.064;15.422;2023-08-17T19:36:58;13.37;;;7.80;;
21339;SDS011;10828;47.064;15.422;2023-08-17T19:39:26;13.13;;;7.53;;
21339;SDS011;10828;47.064;15.422;2023-08-17T19:41:54;10.93;;;6.70;;
21339;SDS011;10828;47.064;15.422;2023-08-17T19:44:20;14.70;;;7.27;;
21339;SDS011;10828;47.064;15.422;2023-08-17T19:46:46;11.70;;;7.90;;
21339;SDS011;10828;47.064;15.422;2023-08-17T19:49:13;12.97;;;7.57;;
21339;SDS011;10828;47.064;15.422;2023-08-17T19:51:40;16.10;;;7.97;;
21339;SDS011;10828;47.064;15.422;2023-08-17T19:54:06;15.57;;;7.83;;
21339;SDS011;10828;47.064;15.422;2023-08-17T19:56:34;12.17;;;7.47;;
21339;SDS011;10828;47.064;15.422;2023-08-17T19:59:02;13.00;;;7.27;;
21339;SDS011;10828;47.064;15.422;2023-08-17T20:01:29;11.57;;;7.23;;
21339;SDS011;10828;47.064;15.422;2023-08-17T20:04:00;13.07;;;7.90;;
21339;SDS011;10828;47.064;15.422;2023-08-17T20:06:28;13.40;;;7.33;;
21339;SDS011;10828;47.064;15.422;2023-08-17T20:08:55;12.20;;;7.63;;
21339;SDS011;10828;47.064;15.422;2023-08-17T20:11:21;13.30;;;7.60;;
21339;SDS011;10828;47.064;15.422;2023-08-17T20:13:48;12.43;;;7.50;;
21339;SDS011;10828;47.064;15.422;2023-08-17T20:16:14;13.10;;;7.73;;
21339;SDS011;10828;47.064;15.422;2023-08-17T20:18:41;12.63;;;7.83;;
21339;SDS011;10828;47.064;15.422;2023-08-17T20:21:07;12.20;;;7.53;;
21339;SDS011;10828;47.064;15.422;2023-08-17T20:23:35;16.67;;;7.30;;
21339;SDS011;10828;47.064;15.422;2023-08-17T20:26:02;13.53;;;8.37;;
21339;SDS011;10828;47.064;15.422;2023-08-17T20:28:28;13.33;;;7.87;;
21339;SDS011;10828;47.064;15.422;2023-08-17T20:30:55;14.03;;;8.17;;
21339;SDS011;10828;47.064;15.422;2023-08-17T20:33:25;15.13;;;8.50;;
21339;SDS011;10828;47.064;15.422;2023-08-17T20:35:52;12.37;;;8.03;;
21339;SDS011;10828;47.064;15.422;2023-08-17T20:38:20;12.83;;;8.33;;
21339;SDS011;10828;47.064;15.422;2023-08-17T20:40:46;14.13;;;8.20;;
21339;SDS011;10828;47.064;15.422;2023-08-17T20:43:13;12.60;;;7.87;;
21339;SDS011;10828;47.064;15.422;2023-08-17T20:45:40;12.00;;;8.00;;
21339;SDS011;10828;47.064;15.422;2023-08-17T20:48:09;12.10;;;7.87;;
21339;SDS011;10828;47.064;15.422;2023-08-17T20:50:40;13.97;;;7.77;;
21339;SDS011;10828;47.064;15.422;2023-08-17T20:53:09;12.70;;;8.00;;
21339;SDS011;10828;47.064;15.422;2023-08-17T20:55:39;11.90;;;8.00;;
21339;SDS011;10828;47.064;15.422;2023-08-17T21:00:35;12.90;;;8.07;;